createdAt,value
2023-05-14T00:00:51.396Z,98690.44
2023-05-14T00:03:18.204Z,98689.50
2023-05-14T00:05:44.804Z,98694.69
2023-05-14T00:08:11.354Z,98691.09
2023-05-14T00:10:37.910Z,98685.66
2023-05-14T00:13:04.433Z,98692.59
2023-05-14T00:15:32.895Z,98685.44
2023-05-14T00:18:00.809Z,98687.16
2023-05-14T00:20:27.431Z,98688.03
2023-05-14T00:22:53.931Z,98680.81
2023-05-14T00:25:20.474Z,98679.06
2023-05-14T00:27:47.023Z,98681.69
2023-05-14T00:30:13.744Z,98678.19
2023-05-14T00:32:40.399Z,98683.56
2023-05-14T00:35:07.145Z,98681.03
2023-05-14T00:37:33.684Z,98681.22
2023-05-14T00:40:00.352Z,98682.34
2023-05-14T00:42:27.261Z,98671.03
2023-05-14T00:44:53.852Z,98676.16
2023-05-14T00:47:21.185Z,98678.69
2023-05-14T00:49:47.892Z,98675.84
2023-05-14T00:52:16.570Z,98673.94
2023-05-14T00:54:43.239Z,98675.91
2023-05-14T00:57:09.916Z,98669.91
2023-05-14T00:59:36.543Z,98676.09
2023-05-14T01:02:03.268Z,98678.59
2023-05-14T01:04:30.074Z,98675.75
2023-05-14T01:07:11.904Z,98678.25
2023-05-14T01:10:13.057Z,98676.50
2023-05-14T01:13:13.145Z,98675.75
2023-05-14T01:15:40.037Z,98676.81
2023-05-14T01:18:10.045Z,98676.88
2023-05-14T01:20:36.844Z,98672.34
2023-05-14T01:23:03.919Z,98671.53
2023-05-14T01:25:31.700Z,98680.34
2023-05-14T01:28:06.693Z,98673.31
2023-05-14T01:30:40.229Z,98669.88
2023-05-14T01:33:13.318Z,98674.28
2023-05-14T01:35:41.274Z,98662.31
2023-05-14T01:38:11.374Z,98665.88
2023-05-14T01:40:38.578Z,98663.31
2023-05-14T01:43:05.855Z,98667.72
2023-05-14T01:45:35.921Z,98665.13
2023-05-14T01:48:02.678Z,98668.59
2023-05-14T01:50:29.401Z,98661.50
2023-05-14T01:52:56.870Z,98650.88
2023-05-14T01:55:24.642Z,98653.66
2023-05-14T01:57:51.954Z,98658.13
2023-05-14T02:00:19.037Z,98654.75
2023-05-14T02:02:45.605Z,98656.56
2023-05-14T02:05:13.171Z,98654.91
2023-05-14T02:07:39.854Z,98657.81
2023-05-14T02:10:07.182Z,98658.72
2023-05-14T02:12:33.961Z,98657.16
2023-05-14T02:15:00.564Z,98654.66
2023-05-14T02:17:27.308Z,98652.19
2023-05-14T02:19:53.849Z,98650.59
2023-05-14T02:22:20.420Z,98649.72
2023-05-14T02:24:47.060Z,98642.88
2023-05-14T02:27:13.665Z,98650.84
2023-05-14T02:29:40.208Z,98645.66
2023-05-14T02:32:07.221Z,98650.16
2023-05-14T02:34:34.553Z,98648.38
2023-05-14T02:37:01.254Z,98646.69
2023-05-14T02:39:28.000Z,98644.16
2023-05-14T02:41:54.826Z,98640.69
2023-05-14T02:44:21.404Z,98647.91
2023-05-14T02:46:48.169Z,98642.63
2023-05-14T02:49:14.863Z,98634.75
2023-05-14T02:51:41.459Z,98640.97
2023-05-14T02:54:08.175Z,98641.25
2023-05-14T02:56:34.743Z,98637.78
2023-05-14T02:59:01.289Z,98640.56
2023-05-14T03:01:28.281Z,98637.94
2023-05-14T03:03:55.515Z,98640.56
2023-05-14T03:06:22.262Z,98638.94
2023-05-14T03:08:48.866Z,98633.03
2023-05-14T03:11:15.473Z,98633.88
2023-05-14T03:13:42.069Z,98628.06
2023-05-14T03:16:08.641Z,98622.03
2023-05-14T03:18:36.848Z,98629.97
2023-05-14T03:21:04.056Z,98624.75
2023-05-14T03:23:32.121Z,98619.56
2023-05-14T03:25:58.934Z,98618.59
2023-05-14T03:28:26.077Z,98628.09
2023-05-14T03:30:52.800Z,98619.38
2023-05-14T03:33:19.743Z,98622.81
2023-05-14T03:35:46.321Z,98619.38
2023-05-14T03:38:12.847Z,98621.97
2023-05-14T03:40:39.506Z,98624.56
2023-05-14T03:43:06.235Z,98628.00
2023-05-14T03:45:33.337Z,98621.81
2023-05-14T03:48:00.051Z,98624.44
2023-05-14T03:50:27.029Z,98612.22
2023-05-14T03:52:53.674Z,98619.31
2023-05-14T03:55:20.514Z,98617.75
2023-05-14T03:57:48.676Z,98619.63
2023-05-14T04:00:15.804Z,98612.59
2023-05-14T04:02:42.663Z,98614.31
2023-05-14T04:05:09.657Z,98612.50
2023-05-14T04:07:36.612Z,98613.34
2023-05-14T04:10:04.727Z,98614.25
2023-05-14T04:12:31.582Z,98609.69
2023-05-14T04:14:58.814Z,98614.81
2023-05-14T04:17:25.951Z,98611.31
2023-05-14T04:19:53.193Z,98608.41
2023-05-14T04:22:19.888Z,98606.78
2023-05-14T04:24:46.540Z,98609.56
2023-05-14T04:27:20.187Z,98610.34
2023-05-14T04:29:47.316Z,98612.81
2023-05-14T04:32:14.874Z,98617.78
2023-05-14T04:34:41.554Z,98617.53
2023-05-14T04:37:08.257Z,98623.47
2023-05-14T04:39:34.869Z,98623.19
2023-05-14T04:42:01.465Z,98622.00
2023-05-14T04:44:28.163Z,98622.63
2023-05-14T04:46:55.516Z,98624.16
2023-05-14T04:49:22.190Z,98626.50
2023-05-14T04:51:49.506Z,98608.75
2023-05-14T04:54:16.222Z,98607.59
2023-05-14T04:56:42.827Z,98610.72
2023-05-14T04:59:09.401Z,98613.00
2023-05-14T05:01:36.354Z,98610.06
2023-05-14T05:04:03.081Z,98617.03
2023-05-14T05:06:29.968Z,98617.56
2023-05-14T05:08:56.501Z,98625.25
2023-05-14T05:11:23.213Z,98618.19
2023-05-14T05:13:50.800Z,98615.56
2023-05-14T05:16:17.577Z,98619.56
2023-05-14T05:18:45.776Z,98614.00
2023-05-14T05:21:12.474Z,98620.78
2023-05-14T05:23:39.138Z,98627.78
2023-05-14T05:26:05.988Z,98622.81
2023-05-14T05:28:32.558Z,98618.00
2023-05-14T05:30:59.262Z,98623.78
2023-05-14T05:33:25.881Z,98624.41
2023-05-14T05:35:52.581Z,98621.94
2023-05-14T05:38:19.337Z,98624.19
2023-05-14T05:40:46.107Z,98624.34
2023-05-14T05:43:13.986Z,98613.78
2023-05-14T05:45:41.059Z,98619.47
2023-05-14T05:48:07.961Z,98613.66
2023-05-14T05:50:34.649Z,98612.78
2023-05-14T05:53:01.303Z,98607.28
2023-05-14T05:55:28.967Z,98630.13
2023-05-14T05:57:56.017Z,98609.72
2023-05-14T06:00:23.255Z,98617.91
2023-05-14T06:02:50.111Z,98613.28
2023-05-14T06:05:16.833Z,98610.34
2023-05-14T06:07:43.427Z,98613.28
2023-05-14T06:10:10.230Z,98607.97
2023-05-14T06:12:36.882Z,98611.75
2023-05-14T06:15:03.858Z,98604.63
2023-05-14T06:17:30.615Z,98611.16
2023-05-14T06:19:57.218Z,98611.56
2023-05-14T06:22:23.752Z,98608.38
2023-05-14T06:24:50.469Z,98606.22
2023-05-14T06:27:17.113Z,98604.47
2023-05-14T06:29:43.798Z,98606.50
2023-05-14T06:32:10.671Z,98604.00
2023-05-14T06:34:37.461Z,98602.47
2023-05-14T06:37:04.321Z,98592.28
2023-05-14T06:39:31.051Z,98585.56
2023-05-14T06:41:57.580Z,98582.34
2023-05-14T06:44:24.314Z,98581.81
2023-05-14T06:46:50.994Z,98575.25
2023-05-14T06:49:18.165Z,98567.03
2023-05-14T06:51:45.114Z,98571.72
2023-05-14T06:54:11.834Z,98563.38
2023-05-14T06:56:38.594Z,98559.50
2023-05-14T06:59:05.278Z,98561.94
2023-05-14T07:01:31.876Z,98565.03
2023-05-14T07:03:58.544Z,98565.38
2023-05-14T07:06:25.117Z,98566.94
2023-05-14T07:08:51.773Z,98569.31
2023-05-14T07:11:18.346Z,98561.84
2023-05-14T07:13:44.915Z,98558.44
2023-05-14T07:16:11.544Z,98561.22
2023-05-14T07:18:38.441Z,98559.22
2023-05-14T07:21:09.008Z,98548.78
2023-05-14T07:23:38.532Z,98552.69
2023-05-14T07:26:07.978Z,98549.84
2023-05-14T07:28:35.096Z,98549.84
2023-05-14T07:31:02.287Z,98543.66
2023-05-14T07:33:28.940Z,98543.25
2023-05-14T07:35:55.553Z,98539.97
2023-05-14T07:38:22.386Z,98536.59
2023-05-14T07:40:48.962Z,98531.72
2023-05-14T07:43:15.591Z,98529.28
2023-05-14T07:45:42.298Z,98524.44
2023-05-14T07:48:09.008Z,98522.63
2023-05-14T07:50:35.884Z,98518.06
2023-05-14T07:53:02.538Z,98518.84
2023-05-14T07:55:29.249Z,98526.72
2023-05-14T07:57:56.258Z,98516.94
2023-05-14T08:00:23.170Z,98510.75
2023-05-14T08:02:50.481Z,98511.84
2023-05-14T08:05:18.086Z,98510.06
2023-05-14T08:07:44.840Z,98508.34
2023-05-14T08:10:11.763Z,98503.59
2023-05-14T08:12:39.150Z,98497.13
2023-05-14T08:15:07.904Z,98496.72
2023-05-14T08:17:34.541Z,98501.56
2023-05-14T08:20:01.695Z,98495.63
2023-05-14T08:22:28.399Z,98494.81
2023-05-14T08:24:55.080Z,98498.53
2023-05-14T08:27:21.749Z,98498.97
2023-05-14T08:29:48.577Z,98498.28
2023-05-14T08:32:22.790Z,98501.69
2023-05-14T08:34:51.972Z,98489.25
2023-05-14T08:37:18.905Z,98497.88
2023-05-14T08:39:45.498Z,98494.81
2023-05-14T08:42:13.895Z,98493.22
2023-05-14T08:44:49.129Z,98490.88
2023-05-14T08:47:18.122Z,98486.56
2023-05-14T08:49:47.799Z,98490.41
2023-05-14T08:52:16.483Z,98486.75
2023-05-14T08:54:43.545Z,98486.31
2023-05-14T08:57:10.770Z,98477.56
2023-05-14T08:59:38.171Z,98471.50
2023-05-14T09:02:06.924Z,98482.47
2023-05-14T09:04:34.754Z,98482.72
2023-05-14T09:07:02.852Z,98474.78
2023-05-14T09:09:29.953Z,98474.94
2023-05-14T09:11:56.566Z,98475.97
2023-05-14T09:14:24.192Z,98466.09
2023-05-14T09:16:51.653Z,98479.44
2023-05-14T09:19:19.897Z,98462.66
2023-05-14T09:21:48.229Z,98466.91
2023-05-14T09:24:25.507Z,98452.00
2023-05-14T09:26:54.525Z,98457.53
2023-05-14T09:29:21.172Z,98466.13
2023-05-14T09:31:50.767Z,98458.47
2023-05-14T09:34:28.162Z,98460.34
2023-05-14T09:36:59.945Z,98461.06
2023-05-14T09:39:27.572Z,98450.94
2023-05-14T09:41:55.411Z,98445.88
2023-05-14T09:44:23.214Z,98451.44
2023-05-14T09:46:51.015Z,98445.03
2023-05-14T09:49:18.127Z,98440.63
2023-05-14T09:51:45.061Z,98433.84
2023-05-14T09:54:11.620Z,98443.63
2023-05-14T09:56:39.715Z,98443.31
2023-05-14T09:59:06.596Z,98436.16
2023-05-14T10:01:33.679Z,98441.59
2023-05-14T10:04:01.882Z,98434.13
2023-05-14T10:06:33.344Z,98432.00
2023-05-14T10:09:10.180Z,98440.69
2023-05-14T10:11:39.091Z,98436.03
2023-05-14T10:14:20.859Z,98430.09
2023-05-14T10:16:50.575Z,98436.25
2023-05-14T10:19:18.947Z,98439.00
2023-05-14T10:21:49.410Z,98438.72
2023-05-14T10:24:16.423Z,98423.50
2023-05-14T10:26:43.402Z,98417.66
2023-05-14T10:29:10.449Z,98410.22
2023-05-14T10:31:49.813Z,98413.91
2023-05-14T10:34:40.777Z,98409.00
2023-05-14T10:37:12.664Z,98416.34
2023-05-14T10:39:59.148Z,98411.00
2023-05-14T10:42:40.538Z,98422.66
2023-05-14T10:45:09.313Z,98404.38
2023-05-14T10:47:37.893Z,98406.59
2023-05-14T10:50:07.232Z,98395.06
2023-05-14T10:52:35.291Z,98401.72
2023-05-14T10:55:04.261Z,98399.50
2023-05-14T10:57:32.437Z,98401.47
2023-05-14T11:00:01.854Z,98393.38
2023-05-14T11:02:39.513Z,98401.41
2023-05-14T11:05:09.215Z,98399.00
2023-05-14T11:07:41.532Z,98389.84
2023-05-14T11:10:10.099Z,98390.91
2023-05-14T11:12:39.671Z,98377.31
2023-05-14T11:15:20.693Z,98378.13
2023-05-14T11:17:48.729Z,98382.66
2023-05-14T11:20:16.857Z,98385.94
2023-05-14T11:22:44.914Z,98377.50
2023-05-14T11:25:15.149Z,98380.84
2023-05-14T11:27:44.074Z,98374.81
2023-05-14T11:30:19.338Z,98378.06
2023-05-14T11:32:47.568Z,98374.34
2023-05-14T11:35:15.628Z,98366.38
2023-05-14T11:37:42.952Z,98363.53
2023-05-14T11:40:19.191Z,98364.22
2023-05-14T11:42:46.093Z,98359.09
2023-05-14T11:45:14.136Z,98353.72
2023-05-14T11:47:42.053Z,98349.94
2023-05-14T11:50:09.728Z,98349.38
2023-05-14T11:52:41.480Z,98357.22
2023-05-14T11:55:12.691Z,98352.13
2023-05-14T11:57:39.749Z,98348.53
2023-05-14T12:00:09.401Z,98344.31
2023-05-14T12:02:36.580Z,98341.94
2023-05-14T12:05:03.578Z,98332.44
2023-05-14T12:07:30.917Z,98325.09
2023-05-14T12:10:01.581Z,98316.00
2023-05-14T12:12:28.202Z,98327.03
2023-05-14T12:14:54.738Z,98332.38
2023-05-14T12:17:23.094Z,98329.75
2023-05-14T12:19:51.957Z,98329.09
2023-05-14T12:22:20.777Z,98326.97
2023-05-14T12:24:54.855Z,98320.09
2023-05-14T12:27:26.417Z,98317.06
2023-05-14T12:30:12.870Z,98312.78
2023-05-14T12:32:42.968Z,98312.09
2023-05-14T12:35:10.321Z,98311.38
2023-05-14T12:37:37.773Z,98304.47
2023-05-14T12:40:09.369Z,98304.00
2023-05-14T12:42:36.639Z,98303.34
2023-05-14T12:45:07.480Z,98291.91
2023-05-14T12:47:34.227Z,98298.34
2023-05-14T12:50:01.110Z,98295.88
2023-05-14T12:52:37.842Z,98290.53
2023-05-14T12:55:09.955Z,98296.06
2023-05-14T12:57:39.080Z,98291.25
2023-05-14T13:00:07.953Z,98284.06
2023-05-14T13:02:42.955Z,98275.69
2023-05-14T13:05:11.305Z,98274.28
2023-05-14T13:07:38.463Z,98279.06
2023-05-14T13:10:06.115Z,98279.06
2023-05-14T13:12:33.177Z,98276.50
2023-05-14T13:14:59.907Z,98271.44
2023-05-14T13:17:26.892Z,98275.38
2023-05-14T13:19:53.658Z,98272.56
2023-05-14T13:22:20.227Z,98263.50
2023-05-14T13:24:46.950Z,98260.84
2023-05-14T13:27:13.506Z,98266.69
2023-05-14T13:29:40.353Z,98259.97
2023-05-14T13:32:07.559Z,98259.75
2023-05-14T13:34:36.033Z,98255.53
2023-05-14T13:37:02.734Z,98255.09
2023-05-14T13:39:37.678Z,98257.19
2023-05-14T13:42:09.423Z,98241.22
2023-05-14T13:44:37.111Z,98246.63
2023-05-14T13:47:10.574Z,98246.19
2023-05-14T13:49:39.117Z,98239.13
2023-05-14T13:52:06.788Z,98243.47
2023-05-14T13:54:33.461Z,98240.59
2023-05-14T13:57:00.485Z,98242.84
2023-05-14T13:59:28.130Z,98236.94
2023-05-14T14:01:54.971Z,98228.25
2023-05-14T14:04:22.386Z,98224.06
2023-05-14T14:06:49.517Z,98244.69
2023-05-14T14:09:19.793Z,98228.56
2023-05-14T14:11:46.917Z,98224.06
2023-05-14T14:14:16.136Z,98224.06
2023-05-14T14:16:43.024Z,98215.31
2023-05-14T14:19:10.073Z,98215.25
2023-05-14T14:21:39.819Z,98213.97
2023-05-14T14:24:06.982Z,98202.38
2023-05-14T14:26:34.155Z,98207.03
2023-05-14T14:29:01.032Z,98199.97
2023-05-14T14:31:27.873Z,98201.50
2023-05-14T14:33:54.591Z,98198.28
2023-05-14T14:36:21.189Z,98200.44
2023-05-14T14:38:48.022Z,98202.78
2023-05-14T14:41:14.645Z,98199.06
2023-05-14T14:43:41.786Z,98195.63
2023-05-14T14:46:11.386Z,98190.94
2023-05-14T14:48:38.720Z,98189.03
2023-05-14T14:51:09.215Z,98186.66
2023-05-14T14:53:37.353Z,98186.44
2023-05-14T14:56:04.797Z,98181.53
2023-05-14T14:58:31.670Z,98188.81
2023-05-14T15:00:58.787Z,98183.66
2023-05-14T15:03:26.003Z,98186.00
2023-05-14T15:05:54.062Z,98181.97
2023-05-14T15:08:35.577Z,98177.91
2023-05-14T15:11:02.602Z,98180.03
2023-05-14T15:13:29.720Z,98181.94
2023-05-14T15:15:56.904Z,98180.25
2023-05-14T15:18:23.645Z,98182.56
2023-05-14T15:20:50.880Z,98180.00
2023-05-14T15:23:17.776Z,98177.13
2023-05-14T15:25:45.621Z,98175.47
2023-05-14T15:28:12.426Z,98173.25
2023-05-14T15:30:39.096Z,98169.91
2023-05-14T15:33:08.973Z,98165.34
2023-05-14T15:35:39.181Z,98168.47
2023-05-14T15:38:07.148Z,98163.13
2023-05-14T15:40:35.376Z,98165.25
2023-05-14T15:43:02.379Z,98161.75
2023-05-14T15:45:31.564Z,98172.22
2023-05-14T15:47:58.359Z,98168.34
2023-05-14T15:50:26.749Z,98160.66
2023-05-14T15:52:53.900Z,98161.50
2023-05-14T15:55:20.983Z,98161.31
2023-05-14T15:57:47.897Z,98164.75
2023-05-14T16:00:14.955Z,98162.94
2023-05-14T16:02:41.588Z,98170.72
2023-05-14T16:05:08.762Z,98171.78
2023-05-14T16:07:36.202Z,98167.13
2023-05-14T16:10:03.615Z,98171.69
2023-05-14T16:12:30.541Z,98166.09
2023-05-14T16:14:57.742Z,98158.78
2023-05-14T16:17:24.714Z,98162.84
2023-05-14T16:19:52.886Z,98161.94
2023-05-14T16:22:21.316Z,98161.38
2023-05-14T16:24:47.954Z,98159.00
2023-05-14T16:27:14.656Z,98157.66
2023-05-14T16:29:41.249Z,98155.66
2023-05-14T16:32:08.038Z,98160.97
2023-05-14T16:34:34.640Z,98159.53
2023-05-14T16:37:01.628Z,98156.34
2023-05-14T16:39:28.309Z,98165.63
2023-05-14T16:41:55.099Z,98161.44
2023-05-14T16:44:21.727Z,98163.53
2023-05-14T16:46:48.690Z,98160.47
2023-05-14T16:49:15.452Z,98167.69
2023-05-14T16:51:43.988Z,98170.72
2023-05-14T16:54:10.725Z,98171.41
2023-05-14T16:56:37.393Z,98171.41
2023-05-14T16:59:04.044Z,98164.84
2023-05-14T17:01:31.009Z,98159.72
2023-05-14T17:03:57.675Z,98166.13
2023-05-14T17:06:24.476Z,98169.06
2023-05-14T17:08:51.283Z,98167.00
2023-05-14T17:11:17.976Z,98165.03
2023-05-14T17:13:44.550Z,98164.78
2023-05-14T17:16:11.694Z,98164.53
2023-05-14T17:18:38.445Z,98169.84
2023-05-14T17:21:06.057Z,98169.22
2023-05-14T17:23:32.631Z,98171.53
2023-05-14T17:25:59.381Z,98174.53
2023-05-14T17:28:27.071Z,98169.06
2023-05-14T17:30:53.706Z,98178.91
2023-05-14T17:33:21.013Z,98176.75
2023-05-14T17:35:48.093Z,98183.13
2023-05-14T17:38:15.133Z,98175.16
2023-05-14T17:40:41.811Z,98177.13
2023-05-14T17:43:20.968Z,98182.25
2023-05-14T17:48:23.106Z,98189.09
2023-05-14T17:50:51.974Z,98183.19
2023-05-14T17:53:18.783Z,98186.84
2023-05-14T17:55:45.619Z,98186.13
2023-05-14T17:58:14.480Z,98188.38
2023-05-14T18:00:41.635Z,98178.25
2023-05-14T18:03:08.387Z,98185.75
2023-05-14T18:05:35.644Z,98181.50
2023-05-14T18:08:02.404Z,98179.53
2023-05-14T18:10:31.886Z,98190.25
2023-05-14T18:13:02.717Z,98190.00
2023-05-14T18:15:35.309Z,98181.28
2023-05-14T18:18:02.487Z,98193.88
2023-05-14T18:20:33.514Z,98192.34
2023-05-14T18:23:02.608Z,98191.84
2023-05-14T18:25:31.654Z,98197.38
2023-05-14T18:27:58.473Z,98190.38
2023-05-14T18:30:25.061Z,98189.03
2023-05-14T18:32:52.176Z,98189.13
2023-05-14T18:35:18.978Z,98188.28
2023-05-14T18:37:46.206Z,98192.44
2023-05-14T18:40:16.880Z,98190.59
2023-05-14T18:42:45.114Z,98188.31
2023-05-14T18:45:13.824Z,98197.63
2023-05-14T18:47:41.157Z,98200.06
2023-05-14T18:50:11.243Z,98202.78
2023-05-14T18:52:38.347Z,98200.50
2023-05-14T18:55:05.730Z,98193.25
2023-05-14T18:57:32.980Z,98189.16
2023-05-14T19:00:03.212Z,98201.78
2023-05-14T19:02:30.320Z,98192.13
2023-05-14T19:04:57.299Z,98196.13
2023-05-14T19:07:23.992Z,98199.41
2023-05-14T19:09:50.711Z,98203.28
2023-05-14T19:12:17.343Z,98211.31
2023-05-14T19:14:44.108Z,98211.09
2023-05-14T19:17:11.157Z,98209.25
2023-05-14T19:19:39.424Z,98205.00
2023-05-14T19:22:06.492Z,98210.25
2023-05-14T19:24:33.164Z,98206.78
2023-05-14T19:26:59.766Z,98206.94
2023-05-14T19:29:26.528Z,98205.06
2023-05-14T19:31:53.210Z,98202.81
2023-05-14T19:34:20.082Z,98207.09
2023-05-14T19:36:46.725Z,98207.41
2023-05-14T19:39:13.520Z,98209.34
2023-05-14T19:41:40.124Z,98199.84
2023-05-14T19:44:06.850Z,98207.28
2023-05-14T19:46:33.939Z,98207.84
2023-05-14T19:49:00.821Z,98206.25
2023-05-14T19:51:27.590Z,98203.09
2023-05-14T19:53:54.146Z,98205.50
2023-05-14T19:56:21.698Z,98202.69
2023-05-14T19:58:48.290Z,98201.19
2023-05-14T20:01:15.213Z,98206.69
2023-05-14T20:03:41.972Z,98201.03
2023-05-14T20:06:08.577Z,98200.38
2023-05-14T20:08:35.236Z,98193.06
2023-05-14T20:11:02.060Z,98196.94
2023-05-14T20:13:31.836Z,98192.44
2023-05-14T20:15:59.336Z,98188.78
2023-05-14T20:18:25.972Z,98187.16
2023-05-14T20:20:52.786Z,98187.03
2023-05-14T20:23:20.697Z,98175.66
2023-05-14T20:25:47.918Z,98180.97
2023-05-14T20:28:14.611Z,98179.41
2023-05-14T20:30:41.324Z,98178.81
2023-05-14T20:33:08.426Z,98179.25
2023-05-14T20:35:35.105Z,98174.38
2023-05-14T20:38:03.639Z,98178.78
2023-05-14T20:40:31.089Z,98176.28
2023-05-14T20:42:57.678Z,98175.38
2023-05-14T20:45:24.592Z,98176.41
2023-05-14T20:47:51.309Z,98166.81
2023-05-14T20:50:17.919Z,98165.56
2023-05-14T20:52:44.487Z,98165.03
2023-05-14T20:55:11.073Z,98166.63
2023-05-14T20:57:37.784Z,98165.13
2023-05-14T21:00:08.216Z,98164.50
2023-05-14T21:02:35.152Z,98173.50
2023-05-14T21:05:02.356Z,98164.66
2023-05-14T21:07:29.111Z,98167.28
2023-05-14T21:09:55.767Z,98166.22
2023-05-14T21:12:22.833Z,98162.97
2023-05-14T21:14:49.378Z,98168.31
2023-05-14T21:17:15.930Z,98163.16
2023-05-14T21:19:42.485Z,98165.34
2023-05-14T21:22:09.060Z,98163.81
2023-05-14T21:24:35.754Z,98158.47
2023-05-14T21:27:02.335Z,98164.47
2023-05-14T21:29:28.931Z,98158.19
2023-05-14T21:31:56.089Z,98160.00
2023-05-14T21:34:22.627Z,98154.31
2023-05-14T21:36:49.322Z,98151.09
2023-05-14T21:39:16.005Z,98151.22
2023-05-14T21:41:42.568Z,98152.13
2023-05-14T21:44:09.077Z,98156.66
2023-05-14T21:46:36.048Z,98155.63
2023-05-14T21:49:03.186Z,98149.56
2023-05-14T21:51:29.992Z,98151.28
2023-05-14T21:53:56.501Z,98147.75
2023-05-14T21:56:23.922Z,98143.31
2023-05-14T21:58:50.472Z,98146.25
2023-05-14T22:01:16.971Z,98149.16
2023-05-14T22:03:43.603Z,98149.97
2023-05-14T22:06:10.295Z,98141.44
2023-05-14T22:08:36.852Z,98146.41
2023-05-14T22:11:03.506Z,98142.91
2023-05-14T22:13:30.178Z,98144.81
2023-05-14T22:16:09.138Z,98151.66
2023-05-14T22:18:39.071Z,98137.94
2023-05-14T22:21:06.023Z,98138.25
2023-05-14T22:23:32.658Z,98139.06
2023-05-14T22:25:59.249Z,98143.50
2023-05-14T22:28:25.926Z,98139.22
2023-05-14T22:30:52.480Z,98142.88
2023-05-14T22:33:19.490Z,98136.94
2023-05-14T22:35:46.174Z,98133.56
2023-05-14T22:38:13.775Z,98133.66
2023-05-14T22:40:40.303Z,98133.56
2023-05-14T22:43:06.890Z,98129.13
2023-05-14T22:45:33.549Z,98130.03
2023-05-14T22:48:00.216Z,98130.75
2023-05-14T22:50:26.911Z,98127.13
2023-05-14T22:52:53.475Z,98135.53
2023-05-14T22:55:20.064Z,98130.38
2023-05-14T22:57:46.625Z,98126.91
2023-05-14T23:00:13.863Z,98129.00
2023-05-14T23:25:23.760Z,98104.69
2023-05-14T23:27:50.449Z,98101.91
2023-05-14T23:30:17.010Z,98107.19
2023-05-14T23:32:43.520Z,98107.31
2023-05-14T23:35:10.335Z,98108.16
2023-05-14T23:37:41.774Z,98097.16
2023-05-14T23:40:09.757Z,98092.97
2023-05-14T23:42:36.260Z,98087.97
2023-05-14T23:45:02.908Z,98088.94
2023-05-14T23:47:29.701Z,98085.53
2023-05-14T23:49:56.436Z,98084.44
2023-05-14T23:52:23.028Z,98080.00
2023-05-14T23:54:49.555Z,98081.63
2023-05-14T23:57:16.182Z,98077.22
2023-05-14T23:59:42.744Z,98072.88
